createdAt,value
2022-11-18T00:01:19.062Z,1.10
2022-11-18T00:06:24.377Z,0.98
2022-11-18T00:08:54.700Z,1.08
2022-11-18T00:11:43.279Z,1.05
2022-11-18T00:14:19.357Z,0.90
2022-11-18T00:16:50.406Z,0.95
2022-11-18T00:19:18.840Z,0.97
2022-11-18T00:21:46.430Z,0.82
2022-11-18T00:24:13.431Z,1.05
2022-11-18T00:26:40.457Z,1.23
2022-11-18T00:29:10.659Z,0.90
2022-11-18T00:31:38.722Z,0.90
2022-11-18T00:34:06.468Z,0.75
2022-11-18T00:36:33.675Z,1.27
2022-11-18T00:39:00.749Z,0.85
2022-11-18T00:41:48.769Z,1.10
2022-11-18T00:44:15.997Z,1.05
2022-11-18T00:46:43.111Z,1.17
2022-11-18T00:49:10.400Z,0.90
2022-11-18T00:51:37.683Z,0.80
2022-11-18T00:54:05.050Z,0.98
2022-11-18T00:56:32.136Z,1.55
2022-11-18T00:58:59.199Z,0.75
2022-11-18T01:01:26.595Z,0.70
2022-11-18T01:03:54.097Z,1.38
2022-11-18T01:06:21.047Z,2.03
2022-11-18T01:08:49.032Z,0.90
2022-11-18T01:11:34.642Z,0.85
2022-11-18T01:14:01.893Z,0.93
2022-11-18T01:16:29.667Z,1.10
2022-11-18T01:18:57.174Z,1.17
2022-11-18T01:21:24.844Z,1.70
2022-11-18T01:23:52.025Z,1.00
2022-11-18T01:26:19.096Z,0.93
2022-11-18T01:28:46.625Z,2.10
2022-11-18T01:31:18.660Z,0.90
2022-11-18T01:33:46.738Z,0.90
2022-11-18T01:36:17.125Z,1.15
2022-11-18T01:38:44.196Z,1.30
2022-11-18T01:41:11.451Z,0.93
2022-11-18T01:44:32.287Z,1.08
2022-11-18T01:46:59.376Z,1.63
2022-11-18T01:49:26.574Z,1.20
2022-11-18T01:51:58.302Z,1.20
2022-11-18T01:54:36.072Z,0.90
2022-11-18T01:57:08.206Z,0.82
2022-11-18T01:59:39.576Z,0.90
2022-11-18T02:02:11.496Z,0.90
2022-11-18T02:07:11.676Z,1.40
2022-11-18T02:09:39.176Z,1.48
2022-11-18T02:12:07.795Z,1.10
2022-11-18T02:14:38.651Z,1.20
2022-11-18T02:17:20.486Z,1.05
2022-11-18T02:19:47.468Z,0.90
2022-11-18T02:22:47.500Z,1.00
2022-11-18T02:25:49.512Z,1.20
2022-11-18T02:28:54.337Z,1.52
2022-11-18T02:31:30.268Z,0.95
2022-11-18T02:34:18.892Z,0.95
2022-11-18T02:36:55.340Z,0.82
2022-11-18T02:39:48.785Z,0.80
2022-11-18T02:42:17.205Z,1.77
2022-11-18T02:44:51.152Z,1.20
2022-11-18T02:47:20.147Z,1.20
2022-11-18T02:49:51.807Z,1.15
2022-11-18T02:52:21.538Z,1.27
2022-11-18T02:54:50.491Z,1.13
2022-11-18T02:57:19.474Z,0.93
2022-11-18T02:59:46.423Z,0.98
2022-11-18T03:02:18.735Z,1.20
2022-11-18T03:04:47.736Z,1.10
2022-11-18T03:07:14.871Z,1.17
2022-11-18T03:09:46.582Z,0.88
2022-11-18T03:12:51.043Z,1.20
2022-11-18T03:15:39.569Z,1.40
2022-11-18T03:18:25.231Z,1.50
2022-11-18T03:21:10.083Z,0.95
2022-11-18T03:24:02.491Z,1.30
2022-11-18T03:26:33.322Z,0.80
2022-11-18T03:29:25.849Z,0.90
2022-11-18T03:32:21.588Z,0.95
2022-11-18T03:34:52.723Z,0.88
2022-11-18T03:37:22.881Z,2.35
2022-11-18T03:39:54.256Z,1.02
2022-11-18T03:42:26.869Z,1.42
2022-11-18T03:45:10.822Z,1.00
2022-11-18T03:47:44.229Z,1.25
2022-11-18T03:50:21.123Z,1.98
2022-11-18T03:52:50.369Z,1.20
2022-11-18T03:55:40.947Z,1.20
2022-11-18T03:58:30.877Z,1.10
2022-11-18T04:01:04.835Z,0.90
2022-11-18T04:03:31.967Z,0.82
2022-11-18T04:06:09.483Z,1.33
2022-11-18T04:08:40.286Z,0.95
2022-11-18T04:11:38.557Z,0.85
2022-11-18T04:14:08.458Z,0.88
2022-11-18T04:16:44.309Z,1.02
2022-11-18T04:19:11.780Z,1.00
2022-11-18T04:21:38.737Z,0.90
2022-11-18T04:24:06.093Z,1.00
2022-11-18T04:26:33.077Z,1.83
2022-11-18T04:29:00.698Z,1.92
2022-11-18T04:31:27.827Z,1.60
2022-11-18T04:33:54.798Z,2.33
2022-11-18T04:36:21.849Z,1.10
2022-11-18T04:38:48.874Z,0.90
2022-11-18T04:41:15.962Z,1.05
2022-11-18T04:43:42.870Z,1.05
2022-11-18T04:46:09.830Z,1.15
2022-11-18T04:48:36.727Z,1.17
2022-11-18T04:51:05.032Z,1.27
2022-11-18T04:53:32.000Z,1.17
2022-11-18T04:56:06.541Z,1.40
2022-11-18T04:58:33.810Z,1.23
2022-11-18T05:01:00.757Z,1.02
2022-11-18T05:03:27.633Z,1.30
2022-11-18T05:05:54.535Z,0.82
2022-11-18T05:08:21.496Z,0.90
2022-11-18T05:10:48.455Z,1.20
2022-11-18T05:13:15.405Z,0.95
2022-11-18T05:15:42.280Z,0.70
2022-11-18T05:18:11.315Z,1.70
2022-11-18T05:20:41.506Z,1.20
2022-11-18T05:23:08.841Z,1.58
2022-11-18T05:25:36.088Z,0.85
2022-11-18T05:28:03.140Z,1.10
2022-11-18T05:30:30.052Z,0.80
2022-11-18T05:32:56.954Z,1.10
2022-11-18T05:35:23.833Z,0.90
2022-11-18T05:37:50.711Z,1.10
2022-11-18T05:40:17.883Z,1.50
2022-11-18T05:43:03.415Z,1.10
2022-11-18T05:45:30.543Z,1.58
2022-11-18T05:48:03.044Z,1.08
2022-11-18T05:50:31.450Z,1.20
2022-11-18T05:52:59.089Z,1.67
2022-11-18T05:55:44.772Z,1.23
2022-11-18T05:58:11.699Z,1.67
2022-11-18T06:00:38.796Z,1.20
2022-11-18T06:03:12.432Z,2.78
2022-11-18T06:05:39.496Z,1.30
2022-11-18T06:08:08.179Z,1.20
2022-11-18T06:10:38.208Z,0.93
2022-11-18T06:13:09.497Z,1.10
2022-11-18T06:15:40.677Z,1.20
2022-11-18T06:18:18.714Z,0.95
2022-11-18T06:20:46.335Z,1.25
2022-11-18T06:23:13.878Z,1.65
2022-11-18T06:25:43.677Z,1.00
2022-11-18T06:28:13.921Z,1.13
2022-11-18T06:30:41.188Z,1.17
2022-11-18T06:33:11.277Z,0.90
2022-11-18T06:35:38.289Z,1.10
2022-11-18T06:38:05.393Z,1.30
2022-11-18T06:40:35.345Z,1.48
2022-11-18T06:43:29.561Z,1.13
2022-11-18T06:46:23.145Z,2.05
2022-11-18T06:48:50.370Z,2.38
2022-11-18T06:51:17.712Z,2.03
2022-11-18T06:53:44.764Z,1.50
2022-11-18T06:56:14.096Z,1.38
2022-11-18T06:58:41.261Z,1.75
2022-11-18T07:01:14.152Z,1.23
2022-11-18T07:06:10.171Z,1.42
2022-11-18T07:08:38.687Z,1.40
2022-11-18T07:11:07.924Z,1.30
2022-11-18T07:13:39.135Z,1.30
2022-11-18T07:16:17.889Z,1.55
2022-11-18T07:18:47.423Z,1.08
2022-11-18T07:21:17.849Z,0.90
2022-11-18T07:23:45.463Z,1.45
2022-11-18T07:26:13.282Z,1.05
2022-11-18T07:28:40.767Z,1.38
2022-11-18T07:31:16.298Z,1.08
2022-11-18T07:33:44.210Z,1.35
2022-11-18T07:36:35.368Z,1.27
2022-11-18T07:39:04.890Z,1.05
2022-11-18T07:41:33.721Z,1.00
2022-11-18T07:44:04.929Z,0.98
2022-11-18T07:46:37.065Z,1.10
2022-11-18T07:49:09.221Z,0.93
2022-11-18T07:51:39.223Z,1.55
2022-11-18T07:54:13.974Z,1.50
2022-11-18T07:56:41.809Z,0.93
2022-11-18T07:59:09.985Z,1.40
2022-11-18T08:01:37.163Z,1.00
2022-11-18T08:04:09.722Z,1.80
2022-11-18T08:06:37.642Z,1.15
2022-11-18T08:09:05.843Z,1.40
2022-11-18T08:11:32.916Z,1.73
2022-11-18T08:14:00.102Z,1.27
2022-11-18T08:16:27.640Z,1.55
2022-11-18T08:18:54.759Z,2.40
2022-11-18T08:21:22.987Z,1.23
2022-11-18T08:23:51.634Z,0.90
2022-11-18T08:26:19.091Z,1.23
2022-11-18T08:28:47.672Z,2.20
2022-11-18T08:31:18.908Z,1.50
2022-11-18T08:33:46.941Z,1.60
2022-11-18T08:36:19.823Z,1.60
2022-11-18T08:38:47.383Z,1.50
2022-11-18T08:41:15.922Z,1.70
2022-11-18T08:43:44.270Z,2.15
2022-11-18T08:46:11.413Z,2.20
2022-11-18T08:48:39.402Z,1.50
2022-11-18T08:51:09.190Z,1.55
2022-11-18T08:53:36.135Z,2.65
2022-11-18T08:56:03.334Z,1.58
2022-11-18T08:58:30.724Z,1.70
2022-11-18T09:00:58.644Z,1.73
2022-11-18T09:03:25.859Z,1.80
2022-11-18T09:05:52.805Z,1.90
2022-11-18T09:08:20.265Z,1.77
2022-11-18T09:10:47.721Z,2.22
2022-11-18T09:16:03.762Z,1.77
2022-11-18T09:18:31.464Z,1.95
2022-11-18T09:21:04.416Z,2.00
2022-11-18T09:23:33.212Z,1.88
2022-11-18T09:26:06.916Z,1.65
2022-11-18T09:28:34.837Z,1.88
2022-11-18T09:31:10.756Z,1.27
2022-11-18T09:33:38.453Z,1.40
2022-11-18T09:36:11.806Z,2.80
2022-11-18T09:38:42.654Z,1.70
2022-11-18T09:41:27.052Z,1.75
2022-11-18T09:44:00.611Z,1.40
2022-11-18T09:46:34.806Z,3.10
2022-11-18T09:49:13.028Z,2.13
2022-11-18T09:51:48.731Z,3.22
2022-11-18T09:54:21.320Z,1.40
2022-11-18T09:56:49.187Z,3.00
2022-11-18T09:59:19.017Z,1.88
2022-11-18T10:01:46.831Z,2.00
2022-11-18T10:04:19.804Z,0.93
2022-11-18T10:06:48.626Z,1.42
2022-11-18T10:09:31.884Z,1.50
2022-11-18T10:12:37.892Z,1.45
2022-11-18T10:15:21.344Z,1.10
2022-11-18T10:18:09.076Z,1.27
2022-11-18T10:20:57.996Z,1.35
2022-11-18T10:23:43.932Z,1.60
2022-11-18T10:26:10.991Z,2.00
2022-11-18T10:28:38.277Z,1.60
2022-11-18T10:31:11.141Z,1.55
2022-11-18T10:33:39.296Z,1.48
2022-11-18T10:36:16.429Z,1.20
2022-11-18T10:38:49.763Z,1.70
2022-11-18T10:41:20.670Z,1.35
2022-11-18T10:43:55.331Z,1.52
2022-11-18T10:46:29.607Z,1.70
2022-11-18T10:49:08.812Z,1.92
2022-11-18T10:51:41.935Z,1.30
2022-11-18T10:54:14.540Z,2.20
2022-11-18T10:57:15.936Z,1.60
2022-11-18T10:59:51.771Z,2.08
2022-11-18T11:02:18.855Z,1.70
2022-11-18T11:04:47.913Z,1.30
2022-11-18T11:07:26.221Z,1.38
2022-11-18T11:10:23.258Z,1.67
2022-11-18T11:12:57.514Z,1.40
2022-11-18T11:15:38.464Z,2.65
2022-11-18T11:18:42.445Z,1.70
2022-11-18T11:21:14.466Z,1.25
2022-11-18T11:29:30.823Z,1.30
2022-11-18T11:32:15.878Z,1.70
2022-11-18T11:35:21.828Z,1.95
2022-11-18T11:38:20.107Z,1.73
2022-11-18T11:41:08.521Z,1.40
2022-11-18T11:43:45.661Z,1.95
2022-11-18T11:46:28.263Z,1.63
2022-11-18T11:49:23.116Z,1.83
2022-11-18T11:52:29.836Z,1.67
2022-11-18T11:55:11.057Z,1.80
2022-11-18T11:58:06.956Z,2.25
2022-11-18T12:00:40.123Z,1.83
2022-11-18T12:03:25.862Z,1.40
2022-11-18T12:05:52.818Z,2.00
2022-11-18T12:08:24.644Z,1.88
2022-11-18T12:13:52.444Z,1.75
2022-11-18T12:16:19.369Z,2.03
2022-11-18T12:18:59.570Z,2.15
2022-11-18T12:21:58.282Z,3.20
2022-11-18T12:24:39.537Z,1.65
2022-11-18T12:27:20.262Z,2.13
2022-11-18T12:29:50.498Z,1.50
2022-11-18T12:32:29.302Z,1.80
2022-11-18T12:35:00.910Z,1.52
2022-11-18T12:37:27.900Z,2.13
2022-11-18T12:39:58.540Z,2.47
2022-11-18T12:43:03.975Z,1.70
2022-11-18T12:45:44.324Z,1.90
2022-11-18T12:48:41.845Z,1.83
2022-11-18T12:51:15.073Z,1.58
2022-11-18T12:53:44.692Z,1.52
2022-11-18T12:56:17.427Z,2.05
2022-11-18T12:58:49.916Z,1.65
2022-11-18T13:01:19.585Z,1.90
2022-11-18T13:03:46.985Z,1.60
2022-11-18T13:06:24.367Z,1.92
2022-11-18T13:09:27.407Z,1.60
2022-11-18T13:12:05.424Z,1.67
2022-11-18T13:15:02.316Z,1.80
2022-11-18T13:17:51.782Z,2.22
2022-11-18T13:20:31.251Z,2.28
2022-11-18T13:23:22.832Z,1.88
2022-11-18T13:25:50.910Z,1.77
2022-11-18T13:28:35.763Z,1.55
2022-11-18T13:31:26.574Z,1.73
2022-11-18T13:33:53.676Z,1.63
2022-11-18T13:36:26.396Z,1.58
2022-11-18T13:39:06.479Z,1.40
2022-11-18T13:41:35.439Z,1.42
2022-11-18T13:44:27.371Z,1.70
2022-11-18T13:47:22.365Z,1.65
2022-11-18T13:49:55.262Z,2.22
2022-11-18T13:52:33.475Z,2.05
2022-11-18T13:55:06.747Z,1.60
2022-11-18T13:57:36.043Z,1.58
2022-11-18T14:00:07.586Z,1.63
2022-11-18T14:02:41.181Z,1.50
2022-11-18T14:05:21.746Z,1.42
2022-11-18T14:08:34.942Z,1.27
2022-11-18T14:11:03.938Z,1.45
2022-11-18T14:13:48.830Z,1.58
2022-11-18T14:16:21.860Z,1.98
2022-11-18T14:18:54.226Z,1.40
2022-11-18T14:21:29.546Z,1.50
2022-11-18T14:23:57.265Z,1.55
2022-11-18T14:26:37.696Z,2.55
2022-11-18T14:29:23.030Z,1.58
2022-11-18T14:32:12.378Z,1.33
2022-11-18T14:34:39.561Z,1.65
2022-11-18T14:37:14.412Z,1.30
2022-11-18T14:39:41.856Z,1.35
2022-11-18T14:42:13.100Z,1.65
2022-11-18T14:44:40.349Z,1.73
2022-11-18T14:47:27.288Z,1.52
2022-11-18T14:49:54.432Z,2.03
2022-11-18T14:52:21.513Z,2.72
2022-11-18T14:54:48.578Z,1.40
2022-11-18T14:57:17.370Z,1.70
2022-11-18T14:59:44.488Z,1.65
2022-11-18T15:02:18.303Z,1.90
2022-11-18T15:04:46.839Z,2.40
2022-11-18T15:07:23.028Z,2.33
2022-11-18T15:09:50.896Z,1.98
2022-11-18T15:12:18.949Z,1.73
2022-11-18T15:14:45.908Z,2.63
2022-11-18T15:17:15.734Z,2.70
2022-11-18T15:19:43.053Z,4.22
2022-11-18T15:22:10.061Z,6.57
2022-11-18T15:24:37.198Z,4.05
2022-11-18T15:27:05.472Z,2.67
2022-11-18T15:29:32.967Z,1.80
2022-11-18T15:32:05.399Z,2.10
2022-11-18T15:34:33.539Z,2.28
2022-11-18T15:37:00.618Z,1.98
2022-11-18T15:39:27.700Z,1.98
2022-11-18T15:41:54.777Z,1.77
2022-11-18T15:44:22.271Z,2.60
2022-11-18T15:46:50.613Z,1.98
2022-11-18T15:49:18.387Z,2.72
2022-11-18T15:51:45.423Z,2.35
2022-11-18T15:54:12.683Z,4.97
2022-11-18T15:56:42.164Z,2.25
2022-11-18T15:59:17.524Z,2.72
2022-11-18T16:01:47.359Z,2.50
2022-11-18T16:04:16.980Z,2.40
2022-11-18T16:06:44.609Z,2.47
2022-11-18T16:09:12.479Z,3.65
2022-11-18T16:11:58.516Z,2.60
2022-11-18T16:14:26.184Z,2.90
2022-11-18T16:16:55.192Z,3.00
2022-11-18T16:19:24.809Z,2.72
2022-11-18T16:21:57.073Z,3.08
2022-11-18T16:24:29.141Z,3.05
2022-11-18T16:29:24.614Z,2.53
2022-11-18T16:31:53.095Z,2.55
2022-11-18T16:34:22.980Z,3.42
2022-11-18T16:36:52.506Z,2.53
2022-11-18T16:39:29.261Z,3.10
2022-11-18T16:42:08.716Z,4.00
2022-11-18T16:44:37.215Z,4.03
2022-11-18T16:47:12.371Z,6.25
2022-11-18T16:49:42.352Z,4.38
2022-11-18T16:52:09.528Z,4.00
2022-11-18T16:54:42.810Z,3.35
2022-11-18T16:57:11.746Z,3.38
2022-11-18T16:59:38.742Z,3.70
2022-11-18T17:02:07.009Z,5.03
2022-11-18T17:04:37.341Z,4.03
2022-11-18T17:07:05.089Z,4.10
2022-11-18T17:09:32.142Z,4.28
2022-11-18T17:11:59.554Z,4.20
2022-11-18T17:14:26.664Z,3.92
2022-11-18T17:16:53.958Z,4.55
2022-11-18T17:19:23.015Z,4.03
2022-11-18T17:21:51.766Z,3.97
2022-11-18T17:24:21.937Z,4.00
2022-11-18T17:26:50.402Z,5.15
2022-11-18T17:29:18.549Z,4.35
2022-11-18T17:31:45.775Z,5.30
2022-11-18T17:34:14.685Z,3.50
2022-11-18T17:36:42.585Z,4.85
2022-11-18T17:39:11.101Z,3.28
2022-11-18T17:41:58.389Z,5.03
2022-11-18T17:44:29.734Z,4.80
2022-11-18T17:46:56.882Z,6.57
2022-11-18T17:49:24.797Z,5.45
2022-11-18T17:51:51.751Z,5.70
2022-11-18T17:54:19.706Z,4.05
2022-11-18T17:56:47.724Z,3.90
2022-11-18T17:59:17.190Z,3.78
2022-11-18T18:01:45.494Z,3.33
2022-11-18T18:04:14.736Z,3.90
2022-11-18T18:06:41.780Z,4.03
2022-11-18T18:09:08.781Z,3.90
2022-11-18T18:11:35.788Z,3.40
2022-11-18T18:14:14.684Z,3.95
2022-11-18T18:16:47.174Z,3.38
2022-11-18T18:19:18.723Z,4.03
2022-11-18T18:21:46.711Z,3.45
2022-11-18T18:24:16.369Z,3.47
2022-11-18T18:26:43.551Z,4.13
2022-11-18T18:29:13.156Z,4.65
2022-11-18T18:31:40.622Z,4.47
2022-11-18T18:34:07.657Z,3.95
2022-11-18T18:36:34.703Z,4.43
2022-11-18T18:39:02.658Z,4.55
2022-11-18T18:41:30.477Z,5.20
2022-11-18T18:44:00.784Z,4.28
2022-11-18T18:46:29.232Z,5.55
2022-11-18T18:49:11.845Z,5.68
2022-11-18T18:51:44.159Z,5.20
2022-11-18T18:54:13.236Z,4.63
2022-11-18T18:56:43.529Z,3.75
2022-11-18T18:59:11.228Z,4.82
2022-11-18T19:01:39.098Z,4.80
2022-11-18T19:04:07.743Z,4.93
2022-11-18T19:06:58.926Z,4.85
2022-11-18T19:09:25.722Z,4.25
2022-11-18T19:12:11.632Z,5.38
2022-11-18T19:14:38.888Z,4.55
2022-11-18T19:17:11.385Z,5.65
2022-11-18T19:20:02.560Z,6.40
2022-11-18T19:22:31.586Z,5.07
2022-11-18T19:24:59.752Z,4.38
2022-11-18T19:27:30.050Z,6.35
2022-11-18T19:29:58.765Z,5.20
2022-11-18T19:32:25.763Z,7.03
2022-11-18T19:34:54.355Z,5.80
2022-11-18T19:37:21.474Z,6.20
2022-11-18T19:39:48.763Z,7.53
2022-11-18T19:42:16.146Z,6.78
2022-11-18T19:44:43.253Z,7.20
2022-11-18T19:47:10.234Z,6.28
2022-11-18T19:49:38.025Z,5.93
2022-11-18T19:52:05.036Z,5.57
2022-11-18T19:54:32.052Z,4.90
2022-11-18T19:56:59.936Z,4.28
2022-11-18T19:59:26.979Z,4.93
2022-11-18T20:01:56.607Z,4.53
2022-11-18T20:04:23.784Z,4.50
2022-11-18T20:06:50.752Z,5.05
2022-11-18T20:09:18.674Z,4.20
2022-11-18T20:11:46.021Z,4.13
2022-11-18T20:14:14.304Z,4.05
2022-11-18T20:16:41.785Z,4.70
2022-11-18T20:19:14.045Z,4.25
2022-11-18T20:21:45.119Z,3.85
2022-11-18T20:24:18.489Z,4.43
2022-11-18T20:26:46.221Z,4.65
2022-11-18T20:29:13.692Z,4.55
2022-11-18T20:31:41.606Z,5.90
2022-11-18T20:34:16.351Z,6.68
2022-11-18T20:36:43.641Z,6.30
2022-11-18T20:39:15.951Z,6.15
2022-11-18T20:42:05.266Z,4.75
2022-11-18T20:44:33.844Z,4.85
2022-11-18T20:47:00.789Z,6.07
2022-11-18T20:49:27.837Z,6.22
2022-11-18T20:51:55.441Z,6.07
2022-11-18T20:54:24.298Z,6.78
2022-11-18T20:56:51.498Z,4.80
2022-11-18T20:59:18.697Z,4.10
2022-11-18T21:01:46.567Z,3.50
2022-11-18T21:04:13.707Z,3.47
2022-11-18T21:06:40.806Z,3.38
2022-11-18T21:09:09.399Z,3.28
2022-11-18T21:11:37.331Z,4.10
2022-11-18T21:14:24.595Z,3.38
2022-11-18T21:16:55.797Z,3.85
2022-11-18T21:19:26.998Z,3.45
2022-11-18T21:21:54.663Z,3.88
2022-11-18T21:24:29.613Z,3.58
2022-11-18T21:26:59.040Z,3.83
2022-11-18T21:29:27.689Z,4.07
2022-11-18T21:31:55.347Z,5.60
2022-11-18T21:34:23.015Z,4.45
2022-11-18T21:36:54.651Z,4.10
2022-11-18T21:39:23.481Z,5.10
2022-11-18T21:41:55.646Z,4.82
2022-11-18T21:44:24.748Z,4.40
2022-11-18T21:46:52.158Z,4.65
2022-11-18T21:49:19.703Z,4.38
2022-11-18T21:51:50.184Z,4.13
2022-11-18T21:54:18.626Z,4.38
2022-11-18T21:56:46.117Z,4.30
2022-11-18T21:59:13.309Z,4.63
2022-11-18T22:01:40.281Z,4.90
2022-11-18T22:04:07.390Z,5.57
2022-11-18T22:06:35.173Z,4.03
2022-11-18T22:09:04.364Z,4.18
2022-11-18T22:11:31.601Z,4.38
2022-11-18T22:13:59.347Z,4.43
2022-11-18T22:16:27.218Z,4.38
2022-11-18T22:19:03.600Z,3.15
2022-11-18T22:21:31.294Z,3.08
2022-11-18T22:24:00.077Z,2.33
2022-11-18T22:26:28.624Z,2.78
2022-11-18T22:28:57.848Z,2.60
2022-11-18T22:31:29.665Z,3.08
2022-11-18T22:36:26.098Z,2.30
2022-11-18T22:38:56.824Z,2.90
2022-11-18T22:41:44.341Z,2.55
2022-11-18T22:44:13.767Z,3.38
2022-11-18T22:46:42.244Z,2.78
2022-11-18T22:49:10.582Z,2.72
2022-11-18T22:51:38.757Z,2.67
2022-11-18T22:56:54.847Z,2.88
2022-11-18T22:59:22.701Z,2.67
2022-11-18T23:01:53.691Z,3.35
2022-11-18T23:04:20.604Z,2.75
2022-11-18T23:06:48.711Z,3.05
2022-11-18T23:09:15.824Z,3.38
2022-11-18T23:12:01.253Z,2.85
2022-11-18T23:14:28.341Z,3.58
2022-11-18T23:16:55.428Z,3.60
2022-11-18T23:19:22.756Z,3.78
2022-11-18T23:21:49.896Z,2.55
2022-11-18T23:24:18.841Z,3.42
2022-11-18T23:26:46.652Z,3.35
2022-11-18T23:29:15.860Z,3.42
2022-11-18T23:31:45.500Z,4.55
2022-11-18T23:34:14.167Z,3.45
2022-11-18T23:36:42.413Z,3.70
2022-11-18T23:39:09.785Z,4.40
2022-11-18T23:41:37.192Z,5.47
2022-11-18T23:44:04.708Z,4.18
2022-11-18T23:46:32.559Z,3.95
2022-11-18T23:48:59.469Z,5.30
2022-11-18T23:51:26.799Z,3.95
2022-11-18T23:53:55.861Z,3.85
2022-11-18T23:56:25.361Z,5.53
2022-11-18T23:58:53.590Z,4.57
